sensor_id;sensor_type;location;lat;lon;timestamp;P1;durP1;ratioP1;P2;durP2;ratioP2
12852;SDS011;6495;51.808;7.478;2023-11-21T00:01:03;6.57;;;4.53;;
12852;SDS011;6495;51.808;7.478;2023-11-21T00:03:35;6.80;;;4.50;;
12852;SDS011;6495;51.808;7.478;2023-11-21T00:06:05;7.93;;;5.38;;
12852;SDS011;6495;51.808;7.478;2023-11-21T00:08:35;7.10;;;5.18;;
12852;SDS011;6495;51.808;7.478;2023-11-21T00:11:05;9.95;;;5.32;;
12852;SDS011;6495;51.808;7.478;2023-11-21T00:13:35;6.57;;;4.78;;
12852;SDS011;6495;51.808;7.478;2023-11-21T00:16:04;9.20;;;5.17;;
12852;SDS011;6495;51.808;7.478;2023-11-21T00:18:34;7.53;;;5.25;;
12852;SDS011;6495;51.808;7.478;2023-11-21T00:21:02;7.45;;;5.10;;
12852;SDS011;6495;51.808;7.478;2023-11-21T00:23:32;8.25;;;5.57;;
12852;SDS011;6495;51.808;7.478;2023-11-21T00:26:00;8.35;;;5.68;;
12852;SDS011;6495;51.808;7.478;2023-11-21T00:28:30;8.80;;;5.50;;
12852;SDS011;6495;51.808;7.478;2023-11-21T00:31:01;9.65;;;5.60;;
12852;SDS011;6495;51.808;7.478;2023-11-21T00:33:30;7.35;;;5.18;;
12852;SDS011;6495;51.808;7.478;2023-11-21T00:36:00;6.85;;;4.82;;
12852;SDS011;6495;51.808;7.478;2023-11-21T00:38:29;9.18;;;4.90;;
12852;SDS011;6495;51.808;7.478;2023-11-21T00:41:00;6.10;;;4.45;;
12852;SDS011;6495;51.808;7.478;2023-11-21T00:43:29;8.27;;;4.70;;
12852;SDS011;6495;51.808;7.478;2023-11-21T00:46:03;8.63;;;5.35;;
12852;SDS011;6495;51.808;7.478;2023-11-21T00:48:33;10.30;;;4.85;;
12852;SDS011;6495;51.808;7.478;2023-11-21T00:51:02;7.60;;;4.70;;
12852;SDS011;6495;51.808;7.478;2023-11-21T00:53:32;8.55;;;4.80;;
12852;SDS011;6495;51.808;7.478;2023-11-21T00:56:01;7.23;;;4.43;;
12852;SDS011;6495;51.808;7.478;2023-11-21T00:58:30;7.80;;;4.47;;
12852;SDS011;6495;51.808;7.478;2023-11-21T01:00:59;6.00;;;4.55;;
12852;SDS011;6495;51.808;7.478;2023-11-21T01:03:29;6.82;;;4.55;;
12852;SDS011;6495;51.808;7.478;2023-11-21T01:05:58;7.20;;;4.93;;
12852;SDS011;6495;51.808;7.478;2023-11-21T01:08:26;6.10;;;4.50;;
12852;SDS011;6495;51.808;7.478;2023-11-21T01:10:55;7.93;;;4.80;;
12852;SDS011;6495;51.808;7.478;2023-11-21T01:13:25;7.43;;;4.78;;
12852;SDS011;6495;51.808;7.478;2023-11-21T01:15:56;7.03;;;4.43;;
12852;SDS011;6495;51.808;7.478;2023-11-21T01:18:25;6.95;;;4.82;;
12852;SDS011;6495;51.808;7.478;2023-11-21T01:20:57;9.88;;;5.25;;
12852;SDS011;6495;51.808;7.478;2023-11-21T01:23:26;7.87;;;5.00;;
12852;SDS011;6495;51.808;7.478;2023-11-21T01:25:55;8.53;;;5.70;;
12852;SDS011;6495;51.808;7.478;2023-11-21T01:28:25;7.77;;;5.40;;
12852;SDS011;6495;51.808;7.478;2023-11-21T01:30:54;8.70;;;5.15;;
12852;SDS011;6495;51.808;7.478;2023-11-21T01:33:23;8.60;;;5.73;;
12852;SDS011;6495;51.808;7.478;2023-11-21T01:35:53;11.13;;;6.05;;
12852;SDS011;6495;51.808;7.478;2023-11-21T01:38:23;10.55;;;5.80;;
12852;SDS011;6495;51.808;7.478;2023-11-21T01:40:52;11.35;;;6.55;;
12852;SDS011;6495;51.808;7.478;2023-11-21T01:43:21;10.80;;;6.18;;
12852;SDS011;6495;51.808;7.478;2023-11-21T01:45:50;8.30;;;5.50;;
12852;SDS011;6495;51.808;7.478;2023-11-21T01:48:19;7.30;;;5.60;;
12852;SDS011;6495;51.808;7.478;2023-11-21T01:50:48;10.38;;;5.70;;
12852;SDS011;6495;51.808;7.478;2023-11-21T01:53:17;9.33;;;5.83;;
12852;SDS011;6495;51.808;7.478;2023-11-21T01:55:50;9.75;;;5.72;;
12852;SDS011;6495;51.808;7.478;2023-11-21T01:58:25;7.90;;;5.85;;
12852;SDS011;6495;51.808;7.478;2023-11-21T02:00:54;8.63;;;5.80;;
12852;SDS011;6495;51.808;7.478;2023-11-21T02:03:23;10.17;;;5.80;;
12852;SDS011;6495;51.808;7.478;2023-11-21T02:05:53;10.13;;;5.27;;
12852;SDS011;6495;51.808;7.478;2023-11-21T02:08:22;10.23;;;5.43;;
12852;SDS011;6495;51.808;7.478;2023-11-21T02:10:53;7.77;;;5.70;;
12852;SDS011;6495;51.808;7.478;2023-11-21T02:13:22;12.30;;;5.30;;
12852;SDS011;6495;51.808;7.478;2023-11-21T02:15:51;8.17;;;5.60;;
12852;SDS011;6495;51.808;7.478;2023-11-21T02:18:21;7.95;;;5.47;;
12852;SDS011;6495;51.808;7.478;2023-11-21T02:20:50;11.13;;;5.83;;
12852;SDS011;6495;51.808;7.478;2023-11-21T02:23:20;10.07;;;5.45;;
12852;SDS011;6495;51.808;7.478;2023-11-21T02:25:49;11.97;;;5.37;;
12852;SDS011;6495;51.808;7.478;2023-11-21T02:28:18;11.30;;;5.67;;
12852;SDS011;6495;51.808;7.478;2023-11-21T02:30:52;10.20;;;6.07;;
12852;SDS011;6495;51.808;7.478;2023-11-21T02:33:24;9.17;;;4.93;;
12852;SDS011;6495;51.808;7.478;2023-11-21T02:35:53;9.38;;;5.28;;
12852;SDS011;6495;51.808;7.478;2023-11-21T02:38:23;12.60;;;6.07;;
12852;SDS011;6495;51.808;7.478;2023-11-21T02:40:52;8.93;;;5.23;;
12852;SDS011;6495;51.808;7.478;2023-11-21T02:43:21;8.43;;;5.03;;
12852;SDS011;6495;51.808;7.478;2023-11-21T02:45:50;7.95;;;5.30;;
12852;SDS011;6495;51.808;7.478;2023-11-21T02:48:19;6.43;;;4.80;;
12852;SDS011;6495;51.808;7.478;2023-11-21T02:51:10;10.03;;;5.40;;
12852;SDS011;6495;51.808;7.478;2023-11-21T02:53:41;8.63;;;5.30;;
12852;SDS011;6495;51.808;7.478;2023-11-21T02:56:10;10.00;;;5.07;;
12852;SDS011;6495;51.808;7.478;2023-11-21T02:58:41;9.17;;;5.07;;
12852;SDS011;6495;51.808;7.478;2023-11-21T03:01:12;11.90;;;5.50;;
12852;SDS011;6495;51.808;7.478;2023-11-21T03:03:41;8.80;;;5.33;;
12852;SDS011;6495;51.808;7.478;2023-11-21T03:06:10;8.00;;;5.03;;
12852;SDS011;6495;51.808;7.478;2023-11-21T03:08:41;9.13;;;4.97;;
12852;SDS011;6495;51.808;7.478;2023-11-21T03:11:09;8.60;;;5.03;;
12852;SDS011;6495;51.808;7.478;2023-11-21T03:13:39;8.23;;;5.23;;
12852;SDS011;6495;51.808;7.478;2023-11-21T03:16:08;6.17;;;4.90;;
12852;SDS011;6495;51.808;7.478;2023-11-21T03:18:39;7.30;;;4.13;;
12852;SDS011;6495;51.808;7.478;2023-11-21T03:21:08;6.60;;;4.77;;
12852;SDS011;6495;51.808;7.478;2023-11-21T03:23:37;4.87;;;3.63;;
12852;SDS011;6495;51.808;7.478;2023-11-21T03:26:11;8.17;;;4.43;;
12852;SDS011;6495;51.808;7.478;2023-11-21T03:28:40;5.00;;;4.00;;
12852;SDS011;6495;51.808;7.478;2023-11-21T03:31:10;5.30;;;4.00;;
12852;SDS011;6495;51.808;7.478;2023-11-21T03:33:38;5.55;;;4.25;;
12852;SDS011;6495;51.808;7.478;2023-11-21T03:36:08;6.27;;;4.70;;
12852;SDS011;6495;51.808;7.478;2023-11-21T03:38:37;6.87;;;4.50;;
12852;SDS011;6495;51.808;7.478;2023-11-21T03:41:08;6.53;;;4.50;;
12852;SDS011;6495;51.808;7.478;2023-11-21T03:43:38;6.13;;;4.27;;
12852;SDS011;6495;51.808;7.478;2023-11-21T03:46:06;7.47;;;4.20;;
12852;SDS011;6495;51.808;7.478;2023-11-21T03:48:35;7.63;;;4.60;;
12852;SDS011;6495;51.808;7.478;2023-11-21T03:51:04;12.70;;;4.50;;
12852;SDS011;6495;51.808;7.478;2023-11-21T03:53:33;6.33;;;4.07;;
12852;SDS011;6495;51.808;7.478;2023-11-21T03:56:03;7.03;;;4.50;;
12852;SDS011;6495;51.808;7.478;2023-11-21T03:58:35;12.03;;;4.80;;
12852;SDS011;6495;51.808;7.478;2023-11-21T04:01:04;6.40;;;4.07;;
12852;SDS011;6495;51.808;7.478;2023-11-21T04:03:34;5.23;;;4.13;;
12852;SDS011;6495;51.808;7.478;2023-11-21T04:06:03;8.40;;;4.53;;
12852;SDS011;6495;51.808;7.478;2023-11-21T04:08:33;6.17;;;4.37;;
12852;SDS011;6495;51.808;7.478;2023-11-21T04:11:02;6.65;;;4.20;;
12852;SDS011;6495;51.808;7.478;2023-11-21T04:13:31;6.97;;;4.47;;
12852;SDS011;6495;51.808;7.478;2023-11-21T04:16:01;6.30;;;4.37;;
12852;SDS011;6495;51.808;7.478;2023-11-21T04:18:30;7.93;;;4.47;;
12852;SDS011;6495;51.808;7.478;2023-11-21T04:20:58;7.33;;;4.03;;
12852;SDS011;6495;51.808;7.478;2023-11-21T04:23:28;6.90;;;4.70;;
12852;SDS011;6495;51.808;7.478;2023-11-21T04:25:58;9.80;;;4.37;;
12852;SDS011;6495;51.808;7.478;2023-11-21T04:28:28;7.73;;;4.53;;
12852;SDS011;6495;51.808;7.478;2023-11-21T04:30:57;9.63;;;4.30;;
12852;SDS011;6495;51.808;7.478;2023-11-21T04:33:27;6.80;;;4.17;;
12852;SDS011;6495;51.808;7.478;2023-11-21T04:35:57;7.10;;;4.20;;
12852;SDS011;6495;51.808;7.478;2023-11-21T04:38:25;10.73;;;4.97;;
12852;SDS011;6495;51.808;7.478;2023-11-21T04:40:54;6.37;;;4.57;;
12852;SDS011;6495;51.808;7.478;2023-11-21T04:43:26;7.17;;;4.30;;
12852;SDS011;6495;51.808;7.478;2023-11-21T04:45:55;7.67;;;4.30;;
12852;SDS011;6495;51.808;7.478;2023-11-21T04:48:24;9.77;;;4.47;;
12852;SDS011;6495;51.808;7.478;2023-11-21T04:50:55;9.40;;;4.83;;
12852;SDS011;6495;51.808;7.478;2023-11-21T04:53:24;12.23;;;5.07;;
12852;SDS011;6495;51.808;7.478;2023-11-21T04:55:53;8.73;;;5.03;;
12852;SDS011;6495;51.808;7.478;2023-11-21T04:58:22;8.37;;;4.90;;
12852;SDS011;6495;51.808;7.478;2023-11-21T05:00:51;8.63;;;4.93;;
12852;SDS011;6495;51.808;7.478;2023-11-21T05:03:19;9.17;;;5.17;;
12852;SDS011;6495;51.808;7.478;2023-11-21T05:05:51;9.77;;;5.10;;
12852;SDS011;6495;51.808;7.478;2023-11-21T05:08:21;10.52;;;5.20;;
12852;SDS011;6495;51.808;7.478;2023-11-21T05:10:49;9.00;;;5.60;;
12852;SDS011;6495;51.808;7.478;2023-11-21T05:13:18;7.73;;;5.17;;
12852;SDS011;6495;51.808;7.478;2023-11-21T05:15:49;9.90;;;5.80;;
12852;SDS011;6495;51.808;7.478;2023-11-21T05:18:23;12.57;;;5.23;;
12852;SDS011;6495;51.808;7.478;2023-11-21T05:20:57;9.90;;;5.70;;
12852;SDS011;6495;51.808;7.478;2023-11-21T05:23:30;8.97;;;5.87;;
12852;SDS011;6495;51.808;7.478;2023-11-21T05:26:05;11.33;;;5.00;;
12852;SDS011;6495;51.808;7.478;2023-11-21T05:28:56;7.80;;;5.05;;
12852;SDS011;6495;51.808;7.478;2023-11-21T05:31:25;8.73;;;4.97;;
12852;SDS011;6495;51.808;7.478;2023-11-21T05:33:54;8.93;;;5.60;;
12852;SDS011;6495;51.808;7.478;2023-11-21T05:36:23;11.67;;;5.40;;
12852;SDS011;6495;51.808;7.478;2023-11-21T05:38:56;11.20;;;5.68;;
12852;SDS011;6495;51.808;7.478;2023-11-21T05:41:24;9.18;;;4.65;;
12852;SDS011;6495;51.808;7.478;2023-11-21T05:43:53;9.07;;;5.50;;
12852;SDS011;6495;51.808;7.478;2023-11-21T05:46:21;8.10;;;5.27;;
12852;SDS011;6495;51.808;7.478;2023-11-21T05:48:50;7.67;;;5.17;;
12852;SDS011;6495;51.808;7.478;2023-11-21T05:51:18;9.45;;;5.00;;
12852;SDS011;6495;51.808;7.478;2023-11-21T05:53:47;7.38;;;4.75;;
12852;SDS011;6495;51.808;7.478;2023-11-21T05:56:17;8.57;;;5.35;;
12852;SDS011;6495;51.808;7.478;2023-11-21T05:58:45;9.70;;;5.38;;
12852;SDS011;6495;51.808;7.478;2023-11-21T06:01:14;8.20;;;5.07;;
12852;SDS011;6495;51.808;7.478;2023-11-21T06:03:42;8.53;;;5.40;;
12852;SDS011;6495;51.808;7.478;2023-11-21T06:06:12;8.60;;;5.07;;
12852;SDS011;6495;51.808;7.478;2023-11-21T06:08:40;9.45;;;5.30;;
12852;SDS011;6495;51.808;7.478;2023-11-21T06:11:09;11.37;;;5.83;;
12852;SDS011;6495;51.808;7.478;2023-11-21T06:13:39;8.50;;;5.53;;
12852;SDS011;6495;51.808;7.478;2023-11-21T06:16:08;8.17;;;5.87;;
12852;SDS011;6495;51.808;7.478;2023-11-21T06:18:37;8.53;;;5.40;;
12852;SDS011;6495;51.808;7.478;2023-11-21T06:21:05;7.45;;;4.88;;
12852;SDS011;6495;51.808;7.478;2023-11-21T06:23:37;11.05;;;5.68;;
12852;SDS011;6495;51.808;7.478;2023-11-21T06:26:05;8.60;;;5.00;;
12852;SDS011;6495;51.808;7.478;2023-11-21T06:28:35;8.73;;;5.27;;
12852;SDS011;6495;51.808;7.478;2023-11-21T06:31:05;9.02;;;5.00;;
12852;SDS011;6495;51.808;7.478;2023-11-21T06:33:34;9.27;;;5.60;;
12852;SDS011;6495;51.808;7.478;2023-11-21T06:36:02;7.47;;;5.07;;
12852;SDS011;6495;51.808;7.478;2023-11-21T06:38:32;13.10;;;6.20;;
12852;SDS011;6495;51.808;7.478;2023-11-21T06:41:01;11.50;;;5.40;;
12852;SDS011;6495;51.808;7.478;2023-11-21T06:43:31;13.67;;;6.70;;
12852;SDS011;6495;51.808;7.478;2023-11-21T06:45:59;16.43;;;7.17;;
12852;SDS011;6495;51.808;7.478;2023-11-21T06:48:29;16.93;;;7.43;;
12852;SDS011;6495;51.808;7.478;2023-11-21T06:50:58;14.07;;;5.90;;
12852;SDS011;6495;51.808;7.478;2023-11-21T06:53:26;17.40;;;7.82;;
12852;SDS011;6495;51.808;7.478;2023-11-21T06:55:55;13.98;;;6.68;;
12852;SDS011;6495;51.808;7.478;2023-11-21T06:58:23;21.30;;;8.18;;
12852;SDS011;6495;51.808;7.478;2023-11-21T07:00:51;14.70;;;7.50;;
12852;SDS011;6495;51.808;7.478;2023-11-21T07:03:22;17.77;;;6.93;;
12852;SDS011;6495;51.808;7.478;2023-11-21T07:05:53;16.87;;;7.40;;
12852;SDS011;6495;51.808;7.478;2023-11-21T07:08:22;19.40;;;7.00;;
12852;SDS011;6495;51.808;7.478;2023-11-21T07:10:51;21.73;;;7.57;;
12852;SDS011;6495;51.808;7.478;2023-11-21T07:13:19;17.13;;;8.47;;
12852;SDS011;6495;51.808;7.478;2023-11-21T07:15:48;21.38;;;7.57;;
12852;SDS011;6495;51.808;7.478;2023-11-21T07:18:17;15.63;;;7.80;;
12852;SDS011;6495;51.808;7.478;2023-11-21T07:20:45;19.77;;;8.53;;
12852;SDS011;6495;51.808;7.478;2023-11-21T07:23:16;17.48;;;8.55;;
12852;SDS011;6495;51.808;7.478;2023-11-21T07:25:44;22.03;;;8.87;;
12852;SDS011;6495;51.808;7.478;2023-11-21T07:28:13;20.40;;;7.70;;
12852;SDS011;6495;51.808;7.478;2023-11-21T07:30:42;18.42;;;8.10;;
12852;SDS011;6495;51.808;7.478;2023-11-21T07:33:10;16.35;;;7.68;;
12852;SDS011;6495;51.808;7.478;2023-11-21T07:35:39;18.73;;;7.65;;
12852;SDS011;6495;51.808;7.478;2023-11-21T07:38:08;18.92;;;7.95;;
12852;SDS011;6495;51.808;7.478;2023-11-21T07:40:38;18.27;;;8.00;;
12852;SDS011;6495;51.808;7.478;2023-11-21T07:43:06;18.92;;;7.43;;
12852;SDS011;6495;51.808;7.478;2023-11-21T07:45:35;18.92;;;7.70;;
12852;SDS011;6495;51.808;7.478;2023-11-21T07:48:04;14.88;;;7.40;;
12852;SDS011;6495;51.808;7.478;2023-11-21T07:50:33;17.42;;;7.40;;
12852;SDS011;6495;51.808;7.478;2023-11-21T07:53:01;17.73;;;7.38;;
12852;SDS011;6495;51.808;7.478;2023-11-21T07:55:32;22.10;;;8.17;;
12852;SDS011;6495;51.808;7.478;2023-11-21T07:58:02;19.60;;;7.85;;
12852;SDS011;6495;51.808;7.478;2023-11-21T08:00:31;15.82;;;7.25;;
12852;SDS011;6495;51.808;7.478;2023-11-21T08:03:01;19.80;;;7.75;;
12852;SDS011;6495;51.808;7.478;2023-11-21T08:05:29;15.23;;;7.03;;
12852;SDS011;6495;51.808;7.478;2023-11-21T08:08:03;16.17;;;7.13;;
12852;SDS011;6495;51.808;7.478;2023-11-21T08:10:32;19.17;;;7.75;;
12852;SDS011;6495;51.808;7.478;2023-11-21T08:13:03;18.08;;;8.02;;
12852;SDS011;6495;51.808;7.478;2023-11-21T08:15:32;15.60;;;6.67;;
12852;SDS011;6495;51.808;7.478;2023-11-21T08:18:02;19.57;;;8.23;;
12852;SDS011;6495;51.808;7.478;2023-11-21T08:20:31;16.33;;;6.78;;
12852;SDS011;6495;51.808;7.478;2023-11-21T08:22:59;20.20;;;9.37;;
12852;SDS011;6495;51.808;7.478;2023-11-21T08:25:39;16.77;;;7.93;;
12852;SDS011;6495;51.808;7.478;2023-11-21T08:28:47;15.60;;;7.70;;
12852;SDS011;6495;51.808;7.478;2023-11-21T08:31:33;17.97;;;7.77;;
12852;SDS011;6495;51.808;7.478;2023-11-21T08:34:33;20.77;;;8.27;;
12852;SDS011;6495;51.808;7.478;2023-11-21T08:37:14;20.97;;;8.43;;
12852;SDS011;6495;51.808;7.478;2023-11-21T08:39:43;16.90;;;7.80;;
12852;SDS011;6495;51.808;7.478;2023-11-21T08:42:12;17.07;;;8.27;;
12852;SDS011;6495;51.808;7.478;2023-11-21T08:44:43;18.27;;;8.17;;
12852;SDS011;6495;51.808;7.478;2023-11-21T08:47:12;26.73;;;9.47;;
12852;SDS011;6495;51.808;7.478;2023-11-21T08:49:43;17.88;;;8.20;;
12852;SDS011;6495;51.808;7.478;2023-11-21T08:52:12;18.17;;;8.48;;
12852;SDS011;6495;51.808;7.478;2023-11-21T08:54:45;20.90;;;8.02;;
12852;SDS011;6495;51.808;7.478;2023-11-21T08:57:23;16.88;;;8.63;;
12852;SDS011;6495;51.808;7.478;2023-11-21T09:00:18;16.35;;;8.27;;
12852;SDS011;6495;51.808;7.478;2023-11-21T09:03:23;17.63;;;8.67;;
12852;SDS011;6495;51.808;7.478;2023-11-21T09:06:31;16.35;;;7.82;;
12852;SDS011;6495;51.808;7.478;2023-11-21T09:08:59;17.02;;;8.10;;
12852;SDS011;6495;51.808;7.478;2023-11-21T09:11:28;17.43;;;8.73;;
12852;SDS011;6495;51.808;7.478;2023-11-21T09:14:00;16.83;;;8.18;;
12852;SDS011;6495;51.808;7.478;2023-11-21T09:16:31;15.88;;;7.63;;
12852;SDS011;6495;51.808;7.478;2023-11-21T09:19:00;16.05;;;7.45;;
12852;SDS011;6495;51.808;7.478;2023-11-21T09:21:32;16.27;;;7.47;;
12852;SDS011;6495;51.808;7.478;2023-11-21T09:24:02;16.00;;;7.85;;
12852;SDS011;6495;51.808;7.478;2023-11-21T09:26:32;15.70;;;7.25;;
12852;SDS011;6495;51.808;7.478;2023-11-21T09:29:01;15.23;;;7.17;;
12852;SDS011;6495;51.808;7.478;2023-11-21T09:31:31;17.02;;;7.18;;
12852;SDS011;6495;51.808;7.478;2023-11-21T09:34:00;14.80;;;7.20;;
12852;SDS011;6495;51.808;7.478;2023-11-21T09:36:28;11.48;;;6.57;;
12852;SDS011;6495;51.808;7.478;2023-11-21T09:38:57;10.98;;;6.43;;
12852;SDS011;6495;51.808;7.478;2023-11-21T09:41:30;13.27;;;6.75;;
12852;SDS011;6495;51.808;7.478;2023-11-21T09:44:07;14.53;;;7.03;;
12852;SDS011;6495;51.808;7.478;2023-11-21T09:46:42;13.60;;;6.93;;
12852;SDS011;6495;51.808;7.478;2023-11-21T09:49:16;10.98;;;5.75;;
12852;SDS011;6495;51.808;7.478;2023-11-21T09:51:52;11.45;;;6.65;;
12852;SDS011;6495;51.808;7.478;2023-11-21T09:54:23;12.07;;;7.00;;
12852;SDS011;6495;51.808;7.478;2023-11-21T09:56:53;13.43;;;7.43;;
12852;SDS011;6495;51.808;7.478;2023-11-21T09:59:22;8.25;;;5.75;;
12852;SDS011;6495;51.808;7.478;2023-11-21T10:01:51;14.10;;;6.97;;
12852;SDS011;6495;51.808;7.478;2023-11-21T10:04:20;11.60;;;6.67;;
12852;SDS011;6495;51.808;7.478;2023-11-21T10:06:49;13.40;;;7.30;;
12852;SDS011;6495;51.808;7.478;2023-11-21T10:09:20;12.80;;;7.23;;
12852;SDS011;6495;51.808;7.478;2023-11-21T10:11:53;15.27;;;8.20;;
12852;SDS011;6495;51.808;7.478;2023-11-21T10:14:24;15.25;;;7.25;;
12852;SDS011;6495;51.808;7.478;2023-11-21T10:16:57;14.93;;;7.90;;
12852;SDS011;6495;51.808;7.478;2023-11-21T10:19:27;15.25;;;7.53;;
12852;SDS011;6495;51.808;7.478;2023-11-21T10:21:56;17.00;;;7.95;;
12852;SDS011;6495;51.808;7.478;2023-11-21T10:24:28;15.23;;;7.47;;
12852;SDS011;6495;51.808;7.478;2023-11-21T10:27:10;11.65;;;6.90;;
12852;SDS011;6495;51.808;7.478;2023-11-21T10:29:39;13.95;;;7.60;;
12852;SDS011;6495;51.808;7.478;2023-11-21T10:32:11;11.93;;;7.47;;
12852;SDS011;6495;51.808;7.478;2023-11-21T10:34:40;14.60;;;7.97;;
12852;SDS011;6495;51.808;7.478;2023-11-21T10:37:12;14.83;;;7.67;;
12852;SDS011;6495;51.808;7.478;2023-11-21T10:39:43;11.38;;;7.25;;
12852;SDS011;6495;51.808;7.478;2023-11-21T10:42:12;13.07;;;6.78;;
12852;SDS011;6495;51.808;7.478;2023-11-21T10:44:41;11.75;;;7.30;;
12852;SDS011;6495;51.808;7.478;2023-11-21T10:47:12;16.10;;;7.87;;
12852;SDS011;6495;51.808;7.478;2023-11-21T10:49:42;14.98;;;7.88;;
12852;SDS011;6495;51.808;7.478;2023-11-21T10:52:10;16.77;;;7.47;;
12852;SDS011;6495;51.808;7.478;2023-11-21T10:54:44;10.73;;;7.00;;
12852;SDS011;6495;51.808;7.478;2023-11-21T10:57:14;13.27;;;6.80;;
12852;SDS011;6495;51.808;7.478;2023-11-21T10:59:48;13.88;;;7.78;;
12852;SDS011;6495;51.808;7.478;2023-11-21T11:02:21;11.75;;;7.10;;
12852;SDS011;6495;51.808;7.478;2023-11-21T11:04:56;13.25;;;6.82;;
12852;SDS011;6495;51.808;7.478;2023-11-21T11:07:28;11.43;;;5.90;;
12852;SDS011;6495;51.808;7.478;2023-11-21T11:10:00;8.13;;;5.45;;
12852;SDS011;6495;51.808;7.478;2023-11-21T11:12:30;9.07;;;5.63;;
12852;SDS011;6495;51.808;7.478;2023-11-21T11:15:01;9.68;;;5.03;;
12852;SDS011;6495;51.808;7.478;2023-11-21T11:17:33;9.35;;;5.30;;
12852;SDS011;6495;51.808;7.478;2023-11-21T11:20:09;8.23;;;4.20;;
12852;SDS011;6495;51.808;7.478;2023-11-21T11:22:46;8.73;;;5.07;;
12852;SDS011;6495;51.808;7.478;2023-11-21T11:25:34;9.68;;;4.82;;
12852;SDS011;6495;51.808;7.478;2023-11-21T11:28:21;8.47;;;4.87;;
12852;SDS011;6495;51.808;7.478;2023-11-21T11:31:00;8.43;;;5.25;;
12852;SDS011;6495;51.808;7.478;2023-11-21T11:33:42;9.00;;;5.25;;
12852;SDS011;6495;51.808;7.478;2023-11-21T11:36:23;9.30;;;5.22;;
12852;SDS011;6495;51.808;7.478;2023-11-21T11:38:59;7.80;;;4.90;;
12852;SDS011;6495;51.808;7.478;2023-11-21T11:41:31;11.70;;;5.78;;
12852;SDS011;6495;51.808;7.478;2023-11-21T11:44:01;8.18;;;4.85;;
12852;SDS011;6495;51.808;7.478;2023-11-21T11:46:40;10.25;;;5.70;;
12852;SDS011;6495;51.808;7.478;2023-11-21T11:49:24;8.80;;;5.13;;
12852;SDS011;6495;51.808;7.478;2023-11-21T11:55:08;11.85;;;5.93;;
12852;SDS011;6495;51.808;7.478;2023-11-21T11:57:38;10.07;;;5.25;;
12852;SDS011;6495;51.808;7.478;2023-11-21T12:00:10;10.02;;;5.22;;
12852;SDS011;6495;51.808;7.478;2023-11-21T12:02:45;10.30;;;4.90;;
12852;SDS011;6495;51.808;7.478;2023-11-21T12:05:17;8.75;;;4.68;;
12852;SDS011;6495;51.808;7.478;2023-11-21T12:07:51;12.23;;;6.00;;
12852;SDS011;6495;51.808;7.478;2023-11-21T12:10:22;10.53;;;5.27;;
12852;SDS011;6495;51.808;7.478;2023-11-21T12:12:53;8.85;;;5.15;;
12852;SDS011;6495;51.808;7.478;2023-11-21T12:15:24;9.82;;;5.18;;
12852;SDS011;6495;51.808;7.478;2023-11-21T12:17:56;11.83;;;5.87;;
12852;SDS011;6495;51.808;7.478;2023-11-21T12:20:27;10.20;;;5.10;;
12852;SDS011;6495;51.808;7.478;2023-11-21T12:22:57;8.80;;;4.72;;
12852;SDS011;6495;51.808;7.478;2023-11-21T12:25:30;11.98;;;5.32;;
12852;SDS011;6495;51.808;7.478;2023-11-21T12:28:01;11.25;;;5.40;;
12852;SDS011;6495;51.808;7.478;2023-11-21T12:30:30;9.70;;;5.25;;
12852;SDS011;6495;51.808;7.478;2023-11-21T12:33:02;10.85;;;5.97;;
12852;SDS011;6495;51.808;7.478;2023-11-21T12:35:35;9.80;;;4.93;;
12852;SDS011;6495;51.808;7.478;2023-11-21T12:38:04;8.57;;;5.38;;
12852;SDS011;6495;51.808;7.478;2023-11-21T12:40:35;9.75;;;5.10;;
12852;SDS011;6495;51.808;7.478;2023-11-21T12:43:04;9.52;;;4.93;;
12852;SDS011;6495;51.808;7.478;2023-11-21T12:45:36;8.20;;;4.57;;
12852;SDS011;6495;51.808;7.478;2023-11-21T12:48:05;8.05;;;4.60;;
12852;SDS011;6495;51.808;7.478;2023-11-21T12:50:39;7.55;;;4.68;;
12852;SDS011;6495;51.808;7.478;2023-11-21T12:53:08;7.45;;;4.43;;
12852;SDS011;6495;51.808;7.478;2023-11-21T12:55:40;6.85;;;4.18;;
12852;SDS011;6495;51.808;7.478;2023-11-21T12:58:09;7.80;;;4.40;;
12852;SDS011;6495;51.808;7.478;2023-11-21T13:00:40;7.00;;;4.10;;
12852;SDS011;6495;51.808;7.478;2023-11-21T13:03:13;6.90;;;4.00;;
12852;SDS011;6495;51.808;7.478;2023-11-21T13:05:48;6.07;;;3.50;;
12852;SDS011;6495;51.808;7.478;2023-11-21T13:08:19;5.68;;;3.10;;
12852;SDS011;6495;51.808;7.478;2023-11-21T13:10:51;6.13;;;3.73;;
12852;SDS011;6495;51.808;7.478;2023-11-21T13:13:22;4.97;;;2.77;;
12852;SDS011;6495;51.808;7.478;2023-11-21T13:15:55;5.23;;;2.50;;
12852;SDS011;6495;51.808;7.478;2023-11-21T13:18:28;4.57;;;2.73;;
12852;SDS011;6495;51.808;7.478;2023-11-21T13:20:59;4.25;;;2.97;;
12852;SDS011;6495;51.808;7.478;2023-11-21T13:23:34;6.07;;;2.95;;
12852;SDS011;6495;51.808;7.478;2023-11-21T13:26:04;4.70;;;2.90;;
12852;SDS011;6495;51.808;7.478;2023-11-21T13:28:34;4.97;;;2.93;;
12852;SDS011;6495;51.808;7.478;2023-11-21T13:31:05;5.25;;;3.45;;
12852;SDS011;6495;51.808;7.478;2023-11-21T13:33:48;5.00;;;3.73;;
12852;SDS011;6495;51.808;7.478;2023-11-21T13:36:24;5.53;;;3.17;;
12852;SDS011;6495;51.808;7.478;2023-11-21T13:38:57;4.63;;;2.78;;
12852;SDS011;6495;51.808;7.478;2023-11-21T13:41:31;6.93;;;3.17;;
12852;SDS011;6495;51.808;7.478;2023-11-21T13:44:00;4.78;;;3.40;;
12852;SDS011;6495;51.808;7.478;2023-11-21T13:46:42;5.93;;;3.30;;
12852;SDS011;6495;51.808;7.478;2023-11-21T13:49:13;4.60;;;3.33;;
12852;SDS011;6495;51.808;7.478;2023-11-21T13:51:44;5.70;;;3.07;;
12852;SDS011;6495;51.808;7.478;2023-11-21T13:54:17;5.10;;;3.28;;
12852;SDS011;6495;51.808;7.478;2023-11-21T13:56:46;6.78;;;3.25;;
12852;SDS011;6495;51.808;7.478;2023-11-21T13:59:16;5.60;;;3.50;;
12852;SDS011;6495;51.808;7.478;2023-11-21T14:01:50;4.57;;;2.93;;
12852;SDS011;6495;51.808;7.478;2023-11-21T14:04:27;6.27;;;3.10;;
12852;SDS011;6495;51.808;7.478;2023-11-21T14:07:15;4.60;;;3.25;;
12852;SDS011;6495;51.808;7.478;2023-11-21T14:09:53;5.97;;;3.80;;
12852;SDS011;6495;51.808;7.478;2023-11-21T14:12:22;8.57;;;5.05;;
12852;SDS011;6495;51.808;7.478;2023-11-21T14:14:51;7.47;;;5.07;;
12852;SDS011;6495;51.808;7.478;2023-11-21T14:17:21;8.40;;;5.03;;
12852;SDS011;6495;51.808;7.478;2023-11-21T14:19:50;7.10;;;4.37;;
12852;SDS011;6495;51.808;7.478;2023-11-21T14:22:23;8.33;;;5.17;;
12852;SDS011;6495;51.808;7.478;2023-11-21T14:24:53;9.03;;;5.03;;
12852;SDS011;6495;51.808;7.478;2023-11-21T14:27:25;7.93;;;4.83;;
12852;SDS011;6495;51.808;7.478;2023-11-21T14:29:55;7.93;;;4.97;;
12852;SDS011;6495;51.808;7.478;2023-11-21T14:32:24;8.67;;;5.37;;
12852;SDS011;6495;51.808;7.478;2023-11-21T14:34:53;11.30;;;6.03;;
12852;SDS011;6495;51.808;7.478;2023-11-21T14:37:23;9.43;;;6.10;;
12852;SDS011;6495;51.808;7.478;2023-11-21T14:39:51;10.65;;;6.70;;
12852;SDS011;6495;51.808;7.478;2023-11-21T14:42:21;12.17;;;6.97;;
12852;SDS011;6495;51.808;7.478;2023-11-21T14:44:52;11.17;;;6.90;;
12852;SDS011;6495;51.808;7.478;2023-11-21T14:47:26;14.83;;;8.27;;
12852;SDS011;6495;51.808;7.478;2023-11-21T14:49:55;12.60;;;7.17;;
12852;SDS011;6495;51.808;7.478;2023-11-21T14:52:28;14.30;;;8.37;;
12852;SDS011;6495;51.808;7.478;2023-11-21T14:55:02;10.80;;;7.43;;
12852;SDS011;6495;51.808;7.478;2023-11-21T14:57:48;9.30;;;6.07;;
12852;SDS011;6495;51.808;7.478;2023-11-21T15:00:17;7.97;;;5.33;;
12852;SDS011;6495;51.808;7.478;2023-11-21T15:03:11;7.03;;;4.87;;
12852;SDS011;6495;51.808;7.478;2023-11-21T15:06:01;9.33;;;5.30;;
12852;SDS011;6495;51.808;7.478;2023-11-21T15:08:50;6.73;;;4.97;;
12852;SDS011;6495;51.808;7.478;2023-11-21T15:11:23;7.17;;;4.43;;
12852;SDS011;6495;51.808;7.478;2023-11-21T15:17:03;6.67;;;4.37;;
12852;SDS011;6495;51.808;7.478;2023-11-21T15:19:52;7.27;;;4.47;;
12852;SDS011;6495;51.808;7.478;2023-11-21T15:22:48;6.70;;;4.50;;
12852;SDS011;6495;51.808;7.478;2023-11-21T15:25:20;6.77;;;4.30;;
12852;SDS011;6495;51.808;7.478;2023-11-21T15:27:50;9.90;;;4.63;;